AGROMETEOROLOŠKI PORTAL
Vinorodna pokrajina

Temelj dobrega kmetovanja.

Pregled podatkov za lokacijo Češnjevek (Cerklje), meteorološka postaja 855696

Pregled senzorjev na lokaciji

ID Ime Zadnja
vrednost
Datum in čas
meritve
(lokalni čas)
Tip
senzorja
6417 Sončno sevanje (W/m2) 38 W/m2 16.4.2024 15:30 Pyranometer SP-Lite
3951 Omočenost lista (1,5 m) (U) 10 U 16.4.2024 15:30 A730WET
5071 Padavine (mm) 2,2 mm 16.4.2024 15:30 Generic 0.2 mm
6412 Relativna zračna vlaga (2 m) (%RH) 98 %RH 16.4.2024 15:30 50YA
6418 Temperatura tal (30 cm) (°C) 12,5 °C 16.4.2024 15:30 ST2
6411 Temperatura (2 m) (°C) 4,4 °C 16.4.2024 15:30 50YA
7059 Smer vetra (3 m) (°) 227 ° 16.4.2024 15:30 Generic 0 - 360
7058 Hitrost vetra (3 m) (km/h) 8 km/h 16.4.2024 15:30 Pro10/2 270 km/h

Pregled podatkov zadnjih 24 ur

Zap.
št.
Datum in čas
(lokalni čas)
Češnjevek (Cerklje)
Sončno
sevanje
Omočenost
lista
(1,5
m)
Padavine Relativna
zračna
vlaga
(2
m)
Temperatura
tal
(30
cm)
Temperatura
(2
m)
Smer
vetra
(3
m)
Hitrost
vetra
(3
m)
1 16.4.2024 15:30 38,1 10 2,2 97,9 12,5 4,4 227 7,8
2 16.4.2024 15:00 26 8 2 91,8 12,6 5,3 201,5 5,3
3 16.4.2024 14:30 20,6 10 1,6 82,4 12,7 6 16,9 13,3
4 16.4.2024 14:00 11,7 9 0,6 76,3 12,7 7,1 8,7 18,8
5 16.4.2024 13:30 16 1 0 68,8 12,7 9,3 1,9 16,4
6 16.4.2024 13:00 55,1 0 0 74,8 12,8 10,9 51,7 9
7 16.4.2024 12:30 50,6 1 0 83,2 12,6 11,8 39,5 10
8 16.4.2024 12:00 23,2 10 0,6 82,5 12,6 13,6 91 16,3
9 16.4.2024 11:30 35,9 1 0 76,9 12,6 14,8 119,8 8,7
10 16.4.2024 11:00 28,9 0 0 76,3 12,6 14,7 105 5,2
11 16.4.2024 10:30 30,2 0 0 76,7 12,7 14,3 107,1 7,8
12 16.4.2024 10:00 19,6 0 0 78,8 12,7 13,9 103,7 6,9
13 16.4.2024 09:30 27 0 0 79,9 12,7 13,8 100,9 6,8
14 16.4.2024 09:00 25,2 0 0 80,7 12,7 13,7 96,7 2,5
15 16.4.2024 08:30 16,4 0 0 87,7 12,8 12,9 118,3 4,4
16 16.4.2024 08:00 27,1 0 0 84,8 12,8 13 161,1 3,7
17 16.4.2024 07:30 22,4 0 0 85,6 12,6 12,4 176,3 1
18 16.4.2024 07:00 10,3 0 0 85,7 12,8 12,2 135,1 3,5
19 16.4.2024 06:30 1,6 1 0 87,4 12,9 11,6 81,1 1,4
20 16.4.2024 06:00 0,3 2 0 89,6 12,9 11,1 137,5 2,3
21 16.4.2024 05:30 0,4 4 0 90,3 13 11 20,1 1,6
22 16.4.2024 05:00 0,5 6 0 90,4 13,1 10,5 9,7 0
23 16.4.2024 04:30 0,5 9 0 88,7 13,1 10,4 226,8 2,4
24 16.4.2024 04:00 0,5 2 0 84 13,2 11,5 148,9 3,7
25 16.4.2024 03:30 0,4 2 0 84,3 13,3 11,4 292,2 3,7
26 16.4.2024 03:00 0,5 2 0 84,8 13,3 11,2 305,3 4,6
27 16.4.2024 02:30 0,4 3 0 85 13,3 11 263,2 4,5
28 16.4.2024 02:00 0,5 0 0 79,8 13,4 12,2 289,7 5,5
29 16.4.2024 01:30 0,5 0 0 77,9 13,4 12,7 287,3 4,9
30 16.4.2024 01:00 0,4 0 0 78 13,5 12,8 43,4 4,9
31 16.4.2024 00:30 0,6 0 0 77,1 13,5 13,2 348 5,5
32 16.4.2024 00:00 0,4 0 0 73,7 13,6 13,9 39,1 4,4
33 15.4.2024 23:30 0,4 0 0 72,3 13,6 14,3 52,9 3
34 15.4.2024 23:00 0,4 0 0 70,8 13,7 14,3 128,7 4,1
35 15.4.2024 22:30 0,3 0 0 66,8 13,7 14,6 197,9 2,8
36 15.4.2024 22:00 0,4 0 0 65,7 13,7 14,6 7,8 3,6
37 15.4.2024 21:30 0,4 0 0 61,9 13,8 15,2 294,6 3,4
38 15.4.2024 21:00 0,5 0 0 53 13,8 16,9 349,9 3,5
39 15.4.2024 20:30 0,6 0 0 47,1 13,7 18,3 220,1 5,8
40 15.4.2024 20:00 5,9 0 0 46,8 13,6 18,4 286,6 6,4
41 15.4.2024 19:30 20,1 0 0 43 13,7 19,4 237,2 12
42 15.4.2024 19:00 97,6 0 0 42,5 13,7 20,1 204,4 12,6
43 15.4.2024 18:30 198,8 0 0 41,9 13,6 20,8 224 11,1
44 15.4.2024 18:00 254,3 0 0 42,4 13,6 21,3 239,4 12,6
45 15.4.2024 17:30 268,3 0 0 42,3 13,6 21,4 212,3 12,9
46 15.4.2024 17:00 261,1 0 0 42,5 13,6 21,7 190,5 14,8